sensor_id;sensor_type;location;lat;lon;timestamp;P1;durP1;ratioP1;P2;durP2;ratioP2
63499;SDS011;49654;51.142;14.924;2022-12-18T00:02:16;49.97;;;23.37;;
63499;SDS011;49654;51.142;14.924;2022-12-18T00:04:43;44.20;;;22.00;;
63499;SDS011;49654;51.142;14.924;2022-12-18T00:07:10;47.83;;;22.37;;
63499;SDS011;49654;51.142;14.924;2022-12-18T00:09:37;42.53;;;20.23;;
63499;SDS011;49654;51.142;14.924;2022-12-18T00:12:04;41.93;;;20.90;;
63499;SDS011;49654;51.142;14.924;2022-12-18T00:14:32;42.87;;;20.07;;
63499;SDS011;49654;51.142;14.924;2022-12-18T00:17:00;42.63;;;19.10;;
63499;SDS011;49654;51.142;14.924;2022-12-18T00:19:28;49.90;;;20.47;;
63499;SDS011;49654;51.142;14.924;2022-12-18T00:21:55;42.77;;;20.07;;
63499;SDS011;49654;51.142;14.924;2022-12-18T00:24:23;44.57;;;19.10;;
63499;SDS011;49654;51.142;14.924;2022-12-18T00:26:50;46.33;;;20.10;;
63499;SDS011;49654;51.142;14.924;2022-12-18T00:29:17;41.77;;;20.63;;
63499;SDS011;49654;51.142;14.924;2022-12-18T00:31:44;41.27;;;19.40;;
63499;SDS011;49654;51.142;14.924;2022-12-18T00:34:14;42.57;;;19.43;;
63499;SDS011;49654;51.142;14.924;2022-12-18T00:36:41;38.73;;;18.60;;
63499;SDS011;49654;51.142;14.924;2022-12-18T00:39:09;42.03;;;19.03;;
63499;SDS011;49654;51.142;14.924;2022-12-18T00:41:37;41.30;;;17.83;;
63499;SDS011;49654;51.142;14.924;2022-12-18T00:44:22;39.30;;;17.93;;
63499;SDS011;49654;51.142;14.924;2022-12-18T00:46:49;35.37;;;16.17;;
63499;SDS011;49654;51.142;14.924;2022-12-18T00:49:18;35.70;;;17.10;;
63499;SDS011;49654;51.142;14.924;2022-12-18T00:51:45;33.87;;;16.77;;
63499;SDS011;49654;51.142;14.924;2022-12-18T00:54:13;42.13;;;18.07;;
63499;SDS011;49654;51.142;14.924;2022-12-18T00:56:40;36.30;;;16.37;;
63499;SDS011;49654;51.142;14.924;2022-12-18T00:59:08;34.83;;;16.13;;
63499;SDS011;49654;51.142;14.924;2022-12-18T01:01:35;37.47;;;17.37;;
63499;SDS011;49654;51.142;14.924;2022-12-18T01:04:02;36.70;;;17.63;;
63499;SDS011;49654;51.142;14.924;2022-12-18T01:06:31;38.27;;;18.03;;
63499;SDS011;49654;51.142;14.924;2022-12-18T01:08:58;34.93;;;16.27;;
63499;SDS011;49654;51.142;14.924;2022-12-18T01:11:25;33.40;;;16.83;;
63499;SDS011;49654;51.142;14.924;2022-12-18T01:13:53;34.10;;;16.37;;
63499;SDS011;49654;51.142;14.924;2022-12-18T01:16:20;32.80;;;16.17;;
63499;SDS011;49654;51.142;14.924;2022-12-18T01:18:50;35.50;;;16.93;;
63499;SDS011;49654;51.142;14.924;2022-12-18T01:21:19;36.03;;;17.80;;
63499;SDS011;49654;51.142;14.924;2022-12-18T01:23:50;38.60;;;18.30;;
63499;SDS011;49654;51.142;14.924;2022-12-18T01:26:19;43.70;;;18.37;;
63499;SDS011;49654;51.142;14.924;2022-12-18T01:28:46;39.10;;;18.87;;
63499;SDS011;49654;51.142;14.924;2022-12-18T01:31:14;38.77;;;19.23;;
63499;SDS011;49654;51.142;14.924;2022-12-18T01:33:43;37.93;;;17.87;;
63499;SDS011;49654;51.142;14.924;2022-12-18T01:36:15;39.33;;;17.83;;
63499;SDS011;49654;51.142;14.924;2022-12-18T01:38:43;39.20;;;18.03;;
63499;SDS011;49654;51.142;14.924;2022-12-18T01:41:12;39.13;;;17.67;;
63499;SDS011;49654;51.142;14.924;2022-12-18T01:43:41;39.60;;;18.57;;
63499;SDS011;49654;51.142;14.924;2022-12-18T01:46:09;39.53;;;17.53;;
63499;SDS011;49654;51.142;14.924;2022-12-18T01:48:37;34.67;;;16.93;;
63499;SDS011;49654;51.142;14.924;2022-12-18T01:51:05;40.87;;;18.50;;
63499;SDS011;49654;51.142;14.924;2022-12-18T01:53:36;36.47;;;16.93;;
63499;SDS011;49654;51.142;14.924;2022-12-18T01:56:05;39.30;;;17.33;;
63499;SDS011;49654;51.142;14.924;2022-12-18T01:58:35;43.27;;;18.90;;
63499;SDS011;49654;51.142;14.924;2022-12-18T02:01:08;40.77;;;19.63;;
63499;SDS011;49654;51.142;14.924;2022-12-18T02:03:36;41.67;;;18.77;;
63499;SDS011;49654;51.142;14.924;2022-12-18T02:06:06;44.10;;;20.23;;
63499;SDS011;49654;51.142;14.924;2022-12-18T02:08:40;42.33;;;19.33;;
63499;SDS011;49654;51.142;14.924;2022-12-18T02:11:16;38.43;;;18.97;;
63499;SDS011;49654;51.142;14.924;2022-12-18T02:13:53;46.90;;;20.10;;
63499;SDS011;49654;51.142;14.924;2022-12-18T02:16:32;42.97;;;18.80;;
63499;SDS011;49654;51.142;14.924;2022-12-18T02:19:06;43.77;;;18.03;;
63499;SDS011;49654;51.142;14.924;2022-12-18T02:21:45;36.60;;;18.10;;
63499;SDS011;49654;51.142;14.924;2022-12-18T02:24:24;36.50;;;18.10;;
63499;SDS011;49654;51.142;14.924;2022-12-18T02:26:58;38.60;;;17.43;;
63499;SDS011;49654;51.142;14.924;2022-12-18T02:29:29;35.73;;;17.00;;
63499;SDS011;49654;51.142;14.924;2022-12-18T02:31:59;34.03;;;16.57;;
63499;SDS011;49654;51.142;14.924;2022-12-18T02:34:30;37.63;;;16.50;;
63499;SDS011;49654;51.142;14.924;2022-12-18T02:37:01;40.07;;;19.27;;
63499;SDS011;49654;51.142;14.924;2022-12-18T02:39:33;36.77;;;18.90;;
63499;SDS011;49654;51.142;14.924;2022-12-18T02:42:03;41.87;;;19.13;;
63499;SDS011;49654;51.142;14.924;2022-12-18T02:44:33;41.90;;;18.83;;
63499;SDS011;49654;51.142;14.924;2022-12-18T02:47:01;42.47;;;18.63;;
63499;SDS011;49654;51.142;14.924;2022-12-18T02:49:31;44.53;;;19.33;;
63499;SDS011;49654;51.142;14.924;2022-12-18T02:52:13;41.27;;;18.37;;
63499;SDS011;49654;51.142;14.924;2022-12-18T02:54:53;44.07;;;19.67;;
63499;SDS011;49654;51.142;14.924;2022-12-18T02:57:27;40.70;;;20.10;;
63499;SDS011;49654;51.142;14.924;2022-12-18T03:00:03;43.13;;;19.83;;
63499;SDS011;49654;51.142;14.924;2022-12-18T03:02:35;39.63;;;19.70;;
63499;SDS011;49654;51.142;14.924;2022-12-18T03:05:08;38.93;;;18.13;;
63499;SDS011;49654;51.142;14.924;2022-12-18T03:07:41;35.77;;;18.63;;
63499;SDS011;49654;51.142;14.924;2022-12-18T03:10:13;41.23;;;19.67;;
63499;SDS011;49654;51.142;14.924;2022-12-18T03:12:46;44.87;;;19.63;;
63499;SDS011;49654;51.142;14.924;2022-12-18T03:15:17;38.57;;;19.50;;
63499;SDS011;49654;51.142;14.924;2022-12-18T03:17:49;38.70;;;18.83;;
63499;SDS011;49654;51.142;14.924;2022-12-18T03:20:23;39.70;;;18.77;;
63499;SDS011;49654;51.142;14.924;2022-12-18T03:22:59;36.17;;;17.40;;
63499;SDS011;49654;51.142;14.924;2022-12-18T03:25:30;37.47;;;17.13;;
63499;SDS011;49654;51.142;14.924;2022-12-18T03:28:02;40.90;;;18.73;;
63499;SDS011;49654;51.142;14.924;2022-12-18T03:30:34;35.07;;;16.73;;
63499;SDS011;49654;51.142;14.924;2022-12-18T03:33:05;36.63;;;17.23;;
63499;SDS011;49654;51.142;14.924;2022-12-18T03:35:39;37.83;;;16.60;;
63499;SDS011;49654;51.142;14.924;2022-12-18T03:38:08;37.83;;;17.27;;
63499;SDS011;49654;51.142;14.924;2022-12-18T03:40:39;33.53;;;16.60;;
63499;SDS011;49654;51.142;14.924;2022-12-18T03:43:15;35.80;;;17.33;;
63499;SDS011;49654;51.142;14.924;2022-12-18T03:45:48;33.67;;;15.17;;
63499;SDS011;49654;51.142;14.924;2022-12-18T03:48:21;32.30;;;15.33;;
63499;SDS011;49654;51.142;14.924;2022-12-18T03:50:57;33.47;;;15.67;;
63499;SDS011;49654;51.142;14.924;2022-12-18T03:53:31;31.63;;;15.50;;
63499;SDS011;49654;51.142;14.924;2022-12-18T03:56:03;33.47;;;15.73;;
63499;SDS011;49654;51.142;14.924;2022-12-18T03:58:33;35.67;;;16.30;;
63499;SDS011;49654;51.142;14.924;2022-12-18T04:01:04;40.30;;;17.87;;
63499;SDS011;49654;51.142;14.924;2022-12-18T04:03:33;34.93;;;17.63;;
63499;SDS011;49654;51.142;14.924;2022-12-18T04:06:02;35.33;;;17.53;;
63499;SDS011;49654;51.142;14.924;2022-12-18T04:08:31;38.90;;;18.70;;
63499;SDS011;49654;51.142;14.924;2022-12-18T04:11:00;39.00;;;18.53;;
63499;SDS011;49654;51.142;14.924;2022-12-18T04:13:29;39.27;;;18.23;;
63499;SDS011;49654;51.142;14.924;2022-12-18T04:16:00;37.00;;;17.57;;
63499;SDS011;49654;51.142;14.924;2022-12-18T04:18:27;40.50;;;19.10;;
63499;SDS011;49654;51.142;14.924;2022-12-18T04:20:54;40.50;;;18.70;;
63499;SDS011;49654;51.142;14.924;2022-12-18T04:23:21;36.80;;;18.13;;
63499;SDS011;49654;51.142;14.924;2022-12-18T04:25:48;38.20;;;18.87;;
63499;SDS011;49654;51.142;14.924;2022-12-18T04:28:15;43.17;;;18.67;;
63499;SDS011;49654;51.142;14.924;2022-12-18T04:30:42;40.73;;;18.40;;
63499;SDS011;49654;51.142;14.924;2022-12-18T04:33:11;39.87;;;18.30;;
63499;SDS011;49654;51.142;14.924;2022-12-18T04:35:39;37.50;;;18.60;;
63499;SDS011;49654;51.142;14.924;2022-12-18T04:38:06;42.00;;;18.70;;
63499;SDS011;49654;51.142;14.924;2022-12-18T04:40:33;42.33;;;18.83;;
63499;SDS011;49654;51.142;14.924;2022-12-18T04:43:01;39.00;;;19.00;;
63499;SDS011;49654;51.142;14.924;2022-12-18T04:45:28;38.97;;;18.80;;
63499;SDS011;49654;51.142;14.924;2022-12-18T04:47:56;44.47;;;20.47;;
63499;SDS011;49654;51.142;14.924;2022-12-18T04:50:25;37.47;;;18.33;;
63499;SDS011;49654;51.142;14.924;2022-12-18T04:52:52;39.00;;;18.70;;
63499;SDS011;49654;51.142;14.924;2022-12-18T04:55:19;39.87;;;18.57;;
63499;SDS011;49654;51.142;14.924;2022-12-18T04:57:46;41.40;;;18.40;;
63499;SDS011;49654;51.142;14.924;2022-12-18T05:00:14;42.30;;;18.27;;
63499;SDS011;49654;51.142;14.924;2022-12-18T05:02:41;35.27;;;15.63;;
63499;SDS011;49654;51.142;14.924;2022-12-18T05:05:08;35.13;;;15.77;;
63499;SDS011;49654;51.142;14.924;2022-12-18T05:07:37;32.63;;;15.70;;
63499;SDS011;49654;51.142;14.924;2022-12-18T05:10:05;32.43;;;16.43;;
63499;SDS011;49654;51.142;14.924;2022-12-18T05:12:32;31.10;;;15.23;;
63499;SDS011;49654;51.142;14.924;2022-12-18T05:14:59;33.23;;;15.53;;
63499;SDS011;49654;51.142;14.924;2022-12-18T05:17:26;31.43;;;14.80;;
63499;SDS011;49654;51.142;14.924;2022-12-18T05:19:53;32.30;;;16.13;;
63499;SDS011;49654;51.142;14.924;2022-12-18T05:22:20;32.67;;;15.73;;
63499;SDS011;49654;51.142;14.924;2022-12-18T05:24:49;30.93;;;14.23;;
63499;SDS011;49654;51.142;14.924;2022-12-18T05:27:16;26.07;;;14.00;;
63499;SDS011;49654;51.142;14.924;2022-12-18T05:29:44;30.53;;;14.23;;
63499;SDS011;49654;51.142;14.924;2022-12-18T05:32:12;25.43;;;13.47;;
63499;SDS011;49654;51.142;14.924;2022-12-18T05:34:39;31.93;;;14.80;;
63499;SDS011;49654;51.142;14.924;2022-12-18T05:37:06;28.13;;;13.63;;
63499;SDS011;49654;51.142;14.924;2022-12-18T05:39:33;31.37;;;14.97;;
63499;SDS011;49654;51.142;14.924;2022-12-18T05:42:01;30.07;;;14.33;;
63499;SDS011;49654;51.142;14.924;2022-12-18T05:44:28;26.40;;;13.77;;
63499;SDS011;49654;51.142;14.924;2022-12-18T05:46:55;28.93;;;14.30;;
63499;SDS011;49654;51.142;14.924;2022-12-18T05:49:22;26.83;;;13.53;;
63499;SDS011;49654;51.142;14.924;2022-12-18T05:51:49;32.03;;;14.90;;
63499;SDS011;49654;51.142;14.924;2022-12-18T05:54:16;30.90;;;14.47;;
63499;SDS011;49654;51.142;14.924;2022-12-18T05:56:43;28.23;;;14.57;;
63499;SDS011;49654;51.142;14.924;2022-12-18T05:59:12;31.97;;;15.30;;
63499;SDS011;49654;51.142;14.924;2022-12-18T06:01:39;29.97;;;14.80;;
63499;SDS011;49654;51.142;14.924;2022-12-18T06:04:06;33.13;;;14.87;;
63499;SDS011;49654;51.142;14.924;2022-12-18T06:06:33;35.27;;;15.17;;
63499;SDS011;49654;51.142;14.924;2022-12-18T06:09:00;34.03;;;14.97;;
63499;SDS011;49654;51.142;14.924;2022-12-18T06:11:34;32.37;;;16.23;;
63499;SDS011;49654;51.142;14.924;2022-12-18T06:14:03;30.93;;;15.07;;
63499;SDS011;49654;51.142;14.924;2022-12-18T06:16:32;31.83;;;14.20;;
63499;SDS011;49654;51.142;14.924;2022-12-18T06:19:00;29.90;;;14.93;;
63499;SDS011;49654;51.142;14.924;2022-12-18T06:21:28;35.83;;;17.10;;
63499;SDS011;49654;51.142;14.924;2022-12-18T06:23:56;32.63;;;15.80;;
63499;SDS011;49654;51.142;14.924;2022-12-18T06:26:23;35.67;;;16.90;;
63499;SDS011;49654;51.142;14.924;2022-12-18T06:28:50;35.93;;;17.13;;
63499;SDS011;49654;51.142;14.924;2022-12-18T06:31:17;33.10;;;16.20;;
63499;SDS011;49654;51.142;14.924;2022-12-18T06:33:46;31.70;;;17.07;;
63499;SDS011;49654;51.142;14.924;2022-12-18T06:36:14;34.00;;;17.03;;
63499;SDS011;49654;51.142;14.924;2022-12-18T06:38:42;33.80;;;15.73;;
63499;SDS011;49654;51.142;14.924;2022-12-18T06:41:11;30.00;;;15.43;;
63499;SDS011;49654;51.142;14.924;2022-12-18T06:43:42;30.07;;;15.27;;
63499;SDS011;49654;51.142;14.924;2022-12-18T06:46:13;32.60;;;15.83;;
63499;SDS011;49654;51.142;14.924;2022-12-18T06:48:40;33.77;;;16.00;;
63499;SDS011;49654;51.142;14.924;2022-12-18T06:51:09;32.97;;;15.77;;
63499;SDS011;49654;51.142;14.924;2022-12-18T06:53:36;33.73;;;15.90;;
63499;SDS011;49654;51.142;14.924;2022-12-18T06:56:04;30.47;;;15.10;;
63499;SDS011;49654;51.142;14.924;2022-12-18T06:58:33;35.80;;;16.67;;
63499;SDS011;49654;51.142;14.924;2022-12-18T07:01:00;30.93;;;15.40;;
63499;SDS011;49654;51.142;14.924;2022-12-18T07:03:28;35.67;;;15.60;;
63499;SDS011;49654;51.142;14.924;2022-12-18T07:05:55;30.20;;;14.43;;
63499;SDS011;49654;51.142;14.924;2022-12-18T07:08:23;29.93;;;15.20;;
63499;SDS011;49654;51.142;14.924;2022-12-18T07:10:51;31.60;;;14.93;;
63499;SDS011;49654;51.142;14.924;2022-12-18T07:13:22;31.70;;;15.43;;
63499;SDS011;49654;51.142;14.924;2022-12-18T07:15:49;30.07;;;14.43;;
63499;SDS011;49654;51.142;14.924;2022-12-18T07:18:16;31.07;;;14.83;;
63499;SDS011;49654;51.142;14.924;2022-12-18T07:20:43;27.73;;;13.90;;
63499;SDS011;49654;51.142;14.924;2022-12-18T07:23:11;31.17;;;14.90;;
63499;SDS011;49654;51.142;14.924;2022-12-18T07:25:39;33.13;;;14.83;;
63499;SDS011;49654;51.142;14.924;2022-12-18T07:28:07;33.20;;;15.10;;
63499;SDS011;49654;51.142;14.924;2022-12-18T07:30:36;34.13;;;14.60;;
63499;SDS011;49654;51.142;14.924;2022-12-18T07:33:03;30.70;;;14.77;;
63499;SDS011;49654;51.142;14.924;2022-12-18T07:35:30;33.17;;;15.33;;
63499;SDS011;49654;51.142;14.924;2022-12-18T07:37:59;36.80;;;16.37;;
63499;SDS011;49654;51.142;14.924;2022-12-18T07:40:27;36.63;;;16.17;;
63499;SDS011;49654;51.142;14.924;2022-12-18T07:42:56;37.23;;;17.00;;
63499;SDS011;49654;51.142;14.924;2022-12-18T07:45:23;37.47;;;17.37;;
63499;SDS011;49654;51.142;14.924;2022-12-18T07:47:50;38.83;;;17.87;;
63499;SDS011;49654;51.142;14.924;2022-12-18T07:50:17;41.60;;;16.77;;
63499;SDS011;49654;51.142;14.924;2022-12-18T07:52:45;35.47;;;17.03;;
63499;SDS011;49654;51.142;14.924;2022-12-18T07:55:12;37.37;;;16.77;;
63499;SDS011;49654;51.142;14.924;2022-12-18T07:57:39;38.77;;;16.90;;
63499;SDS011;49654;51.142;14.924;2022-12-18T08:00:09;35.37;;;16.33;;
63499;SDS011;49654;51.142;14.924;2022-12-18T08:02:37;36.70;;;17.87;;
63499;SDS011;49654;51.142;14.924;2022-12-18T08:05:05;37.33;;;16.50;;
63499;SDS011;49654;51.142;14.924;2022-12-18T08:07:32;39.00;;;17.57;;
63499;SDS011;49654;51.142;14.924;2022-12-18T08:09:59;32.87;;;15.53;;
63499;SDS011;49654;51.142;14.924;2022-12-18T08:12:26;37.90;;;17.03;;
63499;SDS011;49654;51.142;14.924;2022-12-18T08:14:53;39.53;;;17.30;;
63499;SDS011;49654;51.142;14.924;2022-12-18T08:17:22;39.70;;;17.10;;
63499;SDS011;49654;51.142;14.924;2022-12-18T08:19:49;41.40;;;17.57;;
63499;SDS011;49654;51.142;14.924;2022-12-18T08:22:16;44.23;;;18.80;;
63499;SDS011;49654;51.142;14.924;2022-12-18T08:24:43;38.50;;;16.33;;
63499;SDS011;49654;51.142;14.924;2022-12-18T08:27:11;41.13;;;18.97;;
63499;SDS011;49654;51.142;14.924;2022-12-18T08:29:39;39.33;;;17.40;;
63499;SDS011;49654;51.142;14.924;2022-12-18T08:32:07;40.07;;;17.00;;
63499;SDS011;49654;51.142;14.924;2022-12-18T08:34:35;38.93;;;17.50;;
63499;SDS011;49654;51.142;14.924;2022-12-18T08:37:03;40.93;;;18.73;;
63499;SDS011;49654;51.142;14.924;2022-12-18T08:39:30;45.13;;;19.53;;
63499;SDS011;49654;51.142;14.924;2022-12-18T08:41:57;41.77;;;18.77;;
63499;SDS011;49654;51.142;14.924;2022-12-18T08:44:42;42.90;;;20.03;;
63499;SDS011;49654;51.142;14.924;2022-12-18T08:47:09;45.97;;;20.43;;
63499;SDS011;49654;51.142;14.924;2022-12-18T08:49:40;43.90;;;19.90;;
63499;SDS011;49654;51.142;14.924;2022-12-18T08:52:07;44.43;;;20.17;;
63499;SDS011;49654;51.142;14.924;2022-12-18T08:54:34;43.70;;;19.67;;
63499;SDS011;49654;51.142;14.924;2022-12-18T08:57:01;40.87;;;18.57;;
63499;SDS011;49654;51.142;14.924;2022-12-18T08:59:29;43.40;;;18.30;;
63499;SDS011;49654;51.142;14.924;2022-12-18T09:01:58;46.37;;;21.43;;
63499;SDS011;49654;51.142;14.924;2022-12-18T09:04:25;45.10;;;21.30;;
63499;SDS011;49654;51.142;14.924;2022-12-18T09:06:54;40.80;;;18.87;;
63499;SDS011;49654;51.142;14.924;2022-12-18T09:09:21;42.33;;;20.23;;
63499;SDS011;49654;51.142;14.924;2022-12-18T09:11:48;46.67;;;21.10;;
63499;SDS011;49654;51.142;14.924;2022-12-18T09:14:15;46.20;;;19.83;;
63499;SDS011;49654;51.142;14.924;2022-12-18T09:16:42;43.80;;;19.60;;
63499;SDS011;49654;51.142;14.924;2022-12-18T09:19:09;44.43;;;20.13;;
63499;SDS011;49654;51.142;14.924;2022-12-18T09:21:37;42.67;;;20.50;;
63499;SDS011;49654;51.142;14.924;2022-12-18T09:24:06;42.77;;;20.07;;
63499;SDS011;49654;51.142;14.924;2022-12-18T09:26:38;40.80;;;19.57;;
63499;SDS011;49654;51.142;14.924;2022-12-18T09:29:06;42.37;;;20.43;;
63499;SDS011;49654;51.142;14.924;2022-12-18T09:31:34;44.10;;;19.47;;
63499;SDS011;49654;51.142;14.924;2022-12-18T09:34:02;43.57;;;21.43;;
63499;SDS011;49654;51.142;14.924;2022-12-18T09:36:29;43.63;;;20.93;;
63499;SDS011;49654;51.142;14.924;2022-12-18T09:38:56;42.60;;;21.20;;
63499;SDS011;49654;51.142;14.924;2022-12-18T09:41:39;42.27;;;19.77;;
63499;SDS011;49654;51.142;14.924;2022-12-18T09:44:11;43.70;;;20.17;;
63499;SDS011;49654;51.142;14.924;2022-12-18T09:46:45;46.33;;;21.33;;
63499;SDS011;49654;51.142;14.924;2022-12-18T09:49:17;44.40;;;20.97;;
63499;SDS011;49654;51.142;14.924;2022-12-18T09:51:47;51.87;;;23.53;;
63499;SDS011;49654;51.142;14.924;2022-12-18T09:54:18;41.37;;;19.73;;
63499;SDS011;49654;51.142;14.924;2022-12-18T09:56:49;45.90;;;21.47;;
63499;SDS011;49654;51.142;14.924;2022-12-18T09:59:18;41.10;;;20.60;;
63499;SDS011;49654;51.142;14.924;2022-12-18T10:01:49;44.40;;;20.93;;
63499;SDS011;49654;51.142;14.924;2022-12-18T10:04:17;44.97;;;21.53;;
63499;SDS011;49654;51.142;14.924;2022-12-18T10:06:46;45.47;;;22.27;;
63499;SDS011;49654;51.142;14.924;2022-12-18T10:09:21;39.97;;;21.30;;
63499;SDS011;49654;51.142;14.924;2022-12-18T10:11:59;46.00;;;21.53;;
63499;SDS011;49654;51.142;14.924;2022-12-18T10:14:34;46.30;;;21.77;;
63499;SDS011;49654;51.142;14.924;2022-12-18T10:17:09;45.10;;;20.57;;
63499;SDS011;49654;51.142;14.924;2022-12-18T10:19:43;43.63;;;20.53;;
63499;SDS011;49654;51.142;14.924;2022-12-18T10:22:22;46.53;;;21.73;;
63499;SDS011;49654;51.142;14.924;2022-12-18T10:25:01;46.43;;;22.00;;
63499;SDS011;49654;51.142;14.924;2022-12-18T10:27:38;45.47;;;21.00;;
63499;SDS011;49654;51.142;14.924;2022-12-18T10:30:08;44.23;;;21.90;;
63499;SDS011;49654;51.142;14.924;2022-12-18T10:32:40;41.73;;;19.97;;
63499;SDS011;49654;51.142;14.924;2022-12-18T10:35:08;45.37;;;20.97;;
63499;SDS011;49654;51.142;14.924;2022-12-18T10:37:58;45.80;;;21.60;;
63499;SDS011;49654;51.142;14.924;2022-12-18T10:40:26;42.97;;;21.07;;
63499;SDS011;49654;51.142;14.924;2022-12-18T10:43:04;41.87;;;19.80;;
63499;SDS011;49654;51.142;14.924;2022-12-18T10:45:37;39.17;;;19.33;;
63499;SDS011;49654;51.142;14.924;2022-12-18T10:48:04;40.93;;;19.37;;
63499;SDS011;49654;51.142;14.924;2022-12-18T10:50:46;40.37;;;20.17;;
63499;SDS011;49654;51.142;14.924;2022-12-18T10:53:18;39.27;;;19.00;;
63499;SDS011;49654;51.142;14.924;2022-12-18T10:55:47;40.87;;;18.80;;
63499;SDS011;49654;51.142;14.924;2022-12-18T10:58:22;39.43;;;19.17;;
63499;SDS011;49654;51.142;14.924;2022-12-18T11:01:01;40.60;;;19.43;;
63499;SDS011;49654;51.142;14.924;2022-12-18T11:03:34;40.20;;;20.13;;
63499;SDS011;49654;51.142;14.924;2022-12-18T11:06:07;41.67;;;20.00;;
63499;SDS011;49654;51.142;14.924;2022-12-18T11:08:37;40.20;;;18.23;;
63499;SDS011;49654;51.142;14.924;2022-12-18T11:11:06;49.03;;;24.83;;
63499;SDS011;49654;51.142;14.924;2022-12-18T11:13:43;72.87;;;36.43;;
63499;SDS011;49654;51.142;14.924;2022-12-18T11:16:23;35.83;;;18.73;;
63499;SDS011;49654;51.142;14.924;2022-12-18T11:18:50;42.23;;;19.57;;
63499;SDS011;49654;51.142;14.924;2022-12-18T11:21:18;39.83;;;18.53;;
63499;SDS011;49654;51.142;14.924;2022-12-18T11:23:46;40.73;;;19.73;;
63499;SDS011;49654;51.142;14.924;2022-12-18T11:26:15;39.70;;;20.03;;
63499;SDS011;49654;51.142;14.924;2022-12-18T11:28:45;41.83;;;21.17;;
63499;SDS011;49654;51.142;14.924;2022-12-18T11:31:18;42.93;;;19.00;;
63499;SDS011;49654;51.142;14.924;2022-12-18T11:33:51;41.03;;;19.70;;
63499;SDS011;49654;51.142;14.924;2022-12-18T11:36:23;41.47;;;20.93;;
63499;SDS011;49654;51.142;14.924;2022-12-18T11:38:52;41.83;;;19.47;;
63499;SDS011;49654;51.142;14.924;2022-12-18T11:41:23;42.50;;;20.33;;
63499;SDS011;49654;51.142;14.924;2022-12-18T11:44:18;46.10;;;20.40;;
63499;SDS011;49654;51.142;14.924;2022-12-18T11:46:52;41.07;;;19.57;;
63499;SDS011;49654;51.142;14.924;2022-12-18T11:49:26;44.17;;;20.50;;
63499;SDS011;49654;51.142;14.924;2022-12-18T11:52:01;46.60;;;20.53;;
63499;SDS011;49654;51.142;14.924;2022-12-18T11:54:37;42.63;;;19.87;;
63499;SDS011;49654;51.142;14.924;2022-12-18T11:57:06;41.77;;;19.57;;
63499;SDS011;49654;51.142;14.924;2022-12-18T11:59:47;48.33;;;21.50;;
63499;SDS011;49654;51.142;14.924;2022-12-18T12:02:31;43.40;;;20.63;;
63499;SDS011;49654;51.142;14.924;2022-12-18T12:05:16;47.97;;;22.77;;
63499;SDS011;49654;51.142;14.924;2022-12-18T12:07:57;48.57;;;21.23;;
63499;SDS011;49654;51.142;14.924;2022-12-18T12:10:37;46.63;;;21.93;;
63499;SDS011;49654;51.142;14.924;2022-12-18T12:13:18;44.27;;;21.53;;
63499;SDS011;49654;51.142;14.924;2022-12-18T12:16:00;50.17;;;22.33;;
63499;SDS011;49654;51.142;14.924;2022-12-18T12:18:36;44.93;;;21.50;;
63499;SDS011;49654;51.142;14.924;2022-12-18T12:21:15;47.53;;;22.80;;
63499;SDS011;49654;51.142;14.924;2022-12-18T12:23:50;42.57;;;20.87;;
63499;SDS011;49654;51.142;14.924;2022-12-18T12:26:25;45.77;;;21.97;;
63499;SDS011;49654;51.142;14.924;2022-12-18T12:29:05;51.10;;;22.07;;
63499;SDS011;49654;51.142;14.924;2022-12-18T12:31:47;45.70;;;22.00;;
63499;SDS011;49654;51.142;14.924;2022-12-18T12:34:30;48.70;;;22.70;;
63499;SDS011;49654;51.142;14.924;2022-12-18T12:37:09;50.77;;;22.43;;
63499;SDS011;49654;51.142;14.924;2022-12-18T12:39:45;46.00;;;21.93;;
63499;SDS011;49654;51.142;14.924;2022-12-18T12:42:15;42.57;;;20.97;;
63499;SDS011;49654;51.142;14.924;2022-12-18T12:45:16;43.50;;;20.90;;
63499;SDS011;49654;51.142;14.924;2022-12-18T12:47:50;42.97;;;20.60;;
63499;SDS011;49654;51.142;14.924;2022-12-18T12:50:19;41.80;;;21.10;;
63499;SDS011;49654;51.142;14.924;2022-12-18T12:52:49;43.23;;;20.17;;
63499;SDS011;49654;51.142;14.924;2022-12-18T12:55:20;44.23;;;21.10;;
63499;SDS011;49654;51.142;14.924;2022-12-18T12:57:52;43.10;;;21.93;;
63499;SDS011;49654;51.142;14.924;2022-12-18T13:00:26;43.57;;;20.97;;
63499;SDS011;49654;51.142;14.924;2022-12-18T13:03:01;39.87;;;20.23;;
63499;SDS011;49654;51.142;14.924;2022-12-18T13:05:38;55.97;;;22.50;;
63499;SDS011;49654;51.142;14.924;2022-12-18T13:08:12;45.47;;;21.47;;
63499;SDS011;49654;51.142;14.924;2022-12-18T13:10:51;39.97;;;20.67;;
63499;SDS011;49654;51.142;14.924;2022-12-18T13:13:48;40.87;;;20.30;;
63499;SDS011;49654;51.142;14.924;2022-12-18T13:16:17;40.37;;;21.03;;
63499;SDS011;49654;51.142;14.924;2022-12-18T13:18:51;42.97;;;22.30;;
63499;SDS011;49654;51.142;14.924;2022-12-18T13:21:21;37.80;;;20.30;;
63499;SDS011;49654;51.142;14.924;2022-12-18T13:23:52;36.80;;;20.40;;
63499;SDS011;49654;51.142;14.924;2022-12-18T13:29:06;40.37;;;20.40;;
63499;SDS011;49654;51.142;14.924;2022-12-18T13:34:26;40.03;;;20.40;;
63499;SDS011;49654;51.142;14.924;2022-12-18T13:36:56;36.13;;;20.07;;
63499;SDS011;49654;51.142;14.924;2022-12-18T13:39:44;36.37;;;19.30;;
63499;SDS011;49654;51.142;14.924;2022-12-18T13:45:35;43.83;;;20.57;;
63499;SDS011;49654;51.142;14.924;2022-12-18T13:48:19;42.90;;;20.90;;
63499;SDS011;49654;51.142;14.924;2022-12-18T13:50:55;46.60;;;21.80;;
63499;SDS011;49654;51.142;14.924;2022-12-18T13:53:26;42.23;;;19.97;;
63499;SDS011;49654;51.142;14.924;2022-12-18T13:55:56;42.20;;;20.83;;
63499;SDS011;49654;51.142;14.924;2022-12-18T13:58:23;45.23;;;22.80;;
63499;SDS011;49654;51.142;14.924;2022-12-18T14:00:50;47.03;;;22.10;;
63499;SDS011;49654;51.142;14.924;2022-12-18T14:03:19;49.13;;;24.53;;
63499;SDS011;49654;51.142;14.924;2022-12-18T14:05:52;46.73;;;19.97;;
63499;SDS011;49654;51.142;14.924;2022-12-18T14:08:24;45.60;;;22.17;;
63499;SDS011;49654;51.142;14.924;2022-12-18T14:10:56;46.17;;;20.57;;
63499;SDS011;49654;51.142;14.924;2022-12-18T14:13:24;43.77;;;20.33;;
63499;SDS011;49654;51.142;14.924;2022-12-18T14:15:54;46.37;;;19.77;;
63499;SDS011;49654;51.142;14.924;2022-12-18T14:18:23;44.07;;;20.00;;
63499;SDS011;49654;51.142;14.924;2022-12-18T14:20:52;43.33;;;20.17;;
63499;SDS011;49654;51.142;14.924;2022-12-18T14:23:31;43.80;;;21.27;;
63499;SDS011;49654;51.142;14.924;2022-12-18T14:26:00;41.60;;;19.37;;
63499;SDS011;49654;51.142;14.924;2022-12-18T14:28:27;41.13;;;19.17;;
63499;SDS011;49654;51.142;14.924;2022-12-18T14:30:55;45.40;;;19.40;;
63499;SDS011;49654;51.142;14.924;2022-12-18T14:33:23;45.73;;;21.83;;
63499;SDS011;49654;51.142;14.924;2022-12-18T14:35:53;49.70;;;21.67;;
63499;SDS011;49654;51.142;14.924;2022-12-18T14:38:24;49.10;;;22.37;;